createdAt,value
2022-11-29T00:50:05.222Z,-0.25
2022-11-29T00:53:55.986Z,-0.13
2022-11-29T00:56:58.946Z,-0.33
2022-11-29T01:00:10.841Z,-0.29
2022-11-29T01:03:56.231Z,-0.37
2022-11-29T01:07:16.745Z,-0.44
2022-11-29T01:10:30.043Z,-0.50
2022-11-29T01:13:41.494Z,-0.46
2022-11-29T01:16:48.732Z,-0.23
2022-11-29T01:23:35.090Z,-0.45
2022-11-29T01:26:38.114Z,-0.36
2022-11-29T01:29:41.095Z,-0.32
2022-11-29T01:32:43.809Z,-0.30
2022-11-29T01:35:53.413Z,-0.47
2022-11-29T01:38:56.168Z,-0.31
2022-11-29T01:42:00.741Z,-0.53
2022-11-29T01:45:19.124Z,-0.39
2022-11-29T01:48:33.028Z,-0.56
2022-11-29T01:51:37.936Z,-0.63
2022-11-29T01:54:48.368Z,-0.58
2022-11-29T01:57:51.236Z,-0.55
2022-11-29T02:00:54.305Z,-0.45
2022-11-29T02:03:58.293Z,-0.40
2022-11-29T02:07:02.025Z,-0.54
2022-11-29T02:10:06.867Z,-0.52
2022-11-29T02:13:25.841Z,-0.46
2022-11-29T02:16:36.639Z,-0.46
2022-11-29T02:19:54.812Z,-0.58
2022-11-29T02:23:36.250Z,-0.66
2022-11-29T02:26:57.634Z,-0.56
2022-11-29T02:30:09.528Z,-0.55
2022-11-29T02:33:29.619Z,-0.56
2022-11-29T02:36:44.461Z,-0.60
2022-11-29T02:40:19.221Z,-0.69
2022-11-29T02:43:42.633Z,-0.53
2022-11-29T02:47:00.789Z,-0.56
2022-11-29T02:50:22.970Z,-0.74
2022-11-29T02:54:04.642Z,-0.58
2022-11-29T02:57:31.099Z,-0.55
2022-11-29T03:00:38.841Z,-0.64
2022-11-29T03:04:04.833Z,-0.65
2022-11-29T03:07:13.877Z,-0.67
2022-11-29T03:10:38.948Z,-0.72
2022-11-29T03:14:11.364Z,-0.71
2022-11-29T03:17:40.543Z,-0.77
2022-11-29T03:21:05.071Z,-0.78
2022-11-29T03:24:37.159Z,-0.79
2022-11-29T03:28:06.588Z,-0.83
2022-11-29T03:31:09.432Z,-0.78
2022-11-29T03:34:43.681Z,-0.87
2022-11-29T03:38:21.255Z,-0.92
2022-11-29T03:41:30.210Z,-0.94
2022-11-29T03:44:51.896Z,-1.09
2022-11-29T03:48:02.314Z,-0.93
2022-11-29T03:51:16.349Z,-1.10
2022-11-29T03:54:29.746Z,-1.01
2022-11-29T03:58:25.070Z,-1.07
2022-11-29T04:01:45.004Z,-1.09
2022-11-29T04:05:22.232Z,-1.00
2022-11-29T04:08:48.425Z,-1.15
2022-11-29T04:12:07.090Z,-1.02
2022-11-29T04:15:28.541Z,-1.35
2022-11-29T04:18:52.175Z,-1.19
2022-11-29T04:22:09.930Z,-1.12
2022-11-29T04:25:39.959Z,-1.18
2022-11-29T04:29:07.944Z,-1.17
2022-11-29T04:32:25.756Z,-1.16
2022-11-29T04:35:48.470Z,-1.00
2022-11-29T04:39:07.265Z,-0.84
2022-11-29T04:42:12.547Z,-0.83
2022-11-29T04:45:24.629Z,-0.94
2022-11-29T04:48:36.456Z,-0.98
2022-11-29T04:52:17.301Z,-0.94
2022-11-29T04:55:52.336Z,-1.05
2022-11-29T04:59:01.401Z,-0.97
2022-11-29T05:02:29.486Z,-0.98
2022-11-29T05:05:35.398Z,-0.93
2022-11-29T05:08:47.956Z,-0.84
2022-11-29T05:12:10.611Z,-0.98
2022-11-29T05:15:31.432Z,-0.95
2022-11-29T05:18:54.338Z,-1.03
2022-11-29T05:21:56.915Z,-0.87
2022-11-29T05:25:19.458Z,-0.81
2022-11-29T05:28:32.021Z,-0.74
2022-11-29T05:31:50.709Z,-0.77
2022-11-29T05:35:36.076Z,-0.77
2022-11-29T05:39:29.405Z,-0.92
2022-11-29T05:42:50.725Z,-1.08
2022-11-29T05:46:04.541Z,-1.10
2022-11-29T05:49:22.524Z,-0.91
2022-11-29T05:52:31.871Z,-0.89
2022-11-29T05:55:45.054Z,-0.87
2022-11-29T05:58:50.598Z,-0.85
2022-11-29T06:02:31.976Z,-0.88
2022-11-29T06:06:00.773Z,-0.75
2022-11-29T06:09:40.792Z,-0.81
2022-11-29T06:13:10.778Z,-0.74
2022-11-29T06:16:32.517Z,-0.80
2022-11-29T06:20:04.398Z,-0.66
2022-11-29T06:23:07.375Z,-0.65
2022-11-29T06:26:16.914Z,-0.78
2022-11-29T06:29:34.777Z,-0.62
2022-11-29T06:32:40.857Z,-0.75
2022-11-29T06:36:09.791Z,-0.91
2022-11-29T06:39:14.502Z,-0.93
2022-11-29T06:42:17.336Z,-0.93
2022-11-29T06:45:21.973Z,-0.91
2022-11-29T06:48:27.289Z,-1.00
2022-11-29T06:51:49.489Z,-0.94
2022-11-29T06:55:17.405Z,-0.90
2022-11-29T06:59:11.476Z,-0.90
2022-11-29T07:02:32.866Z,-0.90
2022-11-29T07:05:36.465Z,-0.91
2022-11-29T07:08:43.191Z,-0.90
2022-11-29T07:12:12.810Z,-0.85
2022-11-29T07:15:21.201Z,-0.82
2022-11-29T07:19:04.047Z,-0.83
2022-11-29T07:22:36.552Z,-0.79
2022-11-29T07:26:05.965Z,-0.79
2022-11-29T07:29:28.351Z,-0.84
2022-11-29T07:33:00.591Z,-0.73
2022-11-29T07:36:18.628Z,-0.67
2022-11-29T07:39:48.362Z,-0.57
2022-11-29T07:43:13.128Z,-0.63
2022-11-29T07:46:21.069Z,-0.55
2022-11-29T07:49:24.338Z,-0.58
2022-11-29T07:52:28.626Z,-0.57
2022-11-29T07:55:32.281Z,-0.59
2022-11-29T07:58:36.321Z,-0.56
2022-11-29T08:01:47.530Z,-0.42
2022-11-29T08:04:50.796Z,-0.55
2022-11-29T08:08:01.893Z,-0.42
2022-11-29T08:11:16.571Z,-0.37
2022-11-29T08:14:32.298Z,-0.35
2022-11-29T08:17:37.297Z,-0.37
2022-11-29T08:20:41.873Z,-0.34
2022-11-29T08:23:48.340Z,-0.25
2022-11-29T08:26:51.870Z,-0.27
2022-11-29T08:30:07.017Z,-0.29
2022-11-29T08:33:10.087Z,-0.35
2022-11-29T08:36:21.613Z,-0.26
2022-11-29T08:39:39.438Z,-0.25
2022-11-29T08:43:23.394Z,-0.21
2022-11-29T08:46:49.193Z,-0.24
2022-11-29T08:50:02.488Z,-0.21
2022-11-29T08:53:25.221Z,-0.21
2022-11-29T08:57:16.515Z,-0.26
2022-11-29T08:59:55.375Z,-0.20
2022-11-29T09:03:18.700Z,-0.07
2022-11-29T09:06:21.357Z,-0.03
2022-11-29T09:09:24.265Z,-0.04
2022-11-29T09:12:26.943Z,-0.06
2022-11-29T09:15:30.091Z,-0.10
2022-11-29T09:18:32.782Z,-0.05
2022-11-29T09:21:36.839Z,-0.03
2022-11-29T09:24:39.722Z,0.11
2022-11-29T09:27:42.865Z,0.10
2022-11-29T09:30:45.500Z,0.19
2022-11-29T09:33:48.690Z,0.20
2022-11-29T09:36:51.453Z,0.19
2022-11-29T09:39:54.627Z,0.39
2022-11-29T09:43:15.002Z,0.34
2022-11-29T09:46:23.681Z,0.28
2022-11-29T09:50:03.978Z,0.41
2022-11-29T09:53:16.286Z,0.32
2022-11-29T09:56:28.309Z,0.39
2022-11-29T09:59:45.675Z,0.59
2022-11-29T10:02:50.560Z,0.55
2022-11-29T10:06:02.452Z,0.55
2022-11-29T10:09:13.493Z,0.55
2022-11-29T10:12:40.721Z,0.60
2022-11-29T10:15:50.851Z,0.81
2022-11-29T10:19:04.804Z,0.79
2022-11-29T10:22:40.856Z,0.80
2022-11-29T10:25:53.184Z,0.80
2022-11-29T10:28:57.979Z,0.75
2022-11-29T10:32:10.119Z,0.88
2022-11-29T10:35:15.493Z,0.85
2022-11-29T10:38:33.746Z,1.19
2022-11-29T10:41:36.516Z,1.06
2022-11-29T10:44:39.468Z,1.03
2022-11-29T10:47:43.633Z,1.31
2022-11-29T10:50:49.174Z,1.32
2022-11-29T10:53:54.710Z,1.41
2022-11-29T10:57:00.048Z,1.57
2022-11-29T11:00:04.529Z,1.70
2022-11-29T11:03:25.561Z,1.57
2022-11-29T11:07:01.473Z,1.59
2022-11-29T11:10:37.170Z,1.56
2022-11-29T11:13:41.190Z,1.55
2022-11-29T11:16:44.352Z,1.44
2022-11-29T11:20:05.831Z,1.33
2022-11-29T11:23:42.992Z,1.56
2022-11-29T11:26:46.044Z,1.51
2022-11-29T11:29:52.973Z,1.33
2022-11-29T11:33:24.183Z,1.34
2022-11-29T11:37:00.352Z,1.38
2022-11-29T11:40:40.782Z,1.39
2022-11-29T11:44:00.477Z,1.60
2022-11-29T11:47:06.144Z,1.55
2022-11-29T11:50:43.617Z,1.49
2022-11-29T11:53:51.299Z,1.48
2022-11-29T11:57:18.954Z,1.59
2022-11-29T12:01:04.988Z,1.56
2022-11-29T12:04:37.381Z,1.60
2022-11-29T12:08:08.229Z,1.64
2022-11-29T12:11:16.315Z,1.64
2022-11-29T12:14:46.782Z,1.43
2022-11-29T12:17:56.066Z,1.44
2022-11-29T12:21:32.445Z,1.51
2022-11-29T12:24:47.916Z,1.44
2022-11-29T12:27:52.056Z,1.53
2022-11-29T12:31:26.568Z,1.55
2022-11-29T12:34:58.608Z,1.63
2022-11-29T12:38:42.153Z,1.52
2022-11-29T12:42:23.733Z,1.54
2022-11-29T12:46:06.499Z,1.67
2022-11-29T12:49:54.336Z,1.58
2022-11-29T12:53:21.212Z,1.62
2022-11-29T12:56:31.618Z,1.58
2022-11-29T13:00:03.853Z,1.53
2022-11-29T13:03:42.513Z,1.68
2022-11-29T13:07:20.948Z,1.75
2022-11-29T13:10:56.254Z,1.72
2022-11-29T13:14:43.355Z,1.75
2022-11-29T13:17:46.873Z,1.53
2022-11-29T13:21:13.475Z,1.53
2022-11-29T13:24:22.327Z,1.63
2022-11-29T13:27:31.391Z,1.46
2022-11-29T13:30:35.934Z,1.55
2022-11-29T13:34:24.005Z,1.63
2022-11-29T13:38:03.491Z,1.64
2022-11-29T13:41:45.037Z,1.69
2022-11-29T13:44:58.530Z,1.52
2022-11-29T13:48:37.505Z,1.64
2022-11-29T13:52:06.497Z,1.58
2022-11-29T13:55:14.440Z,1.78
2022-11-29T13:58:39.691Z,1.75
2022-11-29T14:01:51.176Z,1.66
2022-11-29T14:04:55.667Z,1.70
2022-11-29T14:09:02.515Z,1.63
2022-11-29T14:12:50.002Z,1.79
2022-11-29T14:16:31.916Z,1.82
2022-11-29T14:20:23.749Z,1.77
2022-11-29T14:24:02.100Z,1.68
2022-11-29T14:27:25.905Z,1.83
2022-11-29T14:31:10.911Z,1.74
2022-11-29T14:34:43.990Z,1.68
2022-11-29T14:38:16.252Z,1.68
2022-11-29T14:42:04.433Z,1.63
2022-11-29T14:45:33.020Z,1.49
2022-11-29T14:48:38.378Z,1.63
2022-11-29T14:52:13.190Z,1.67
2022-11-29T14:55:37.997Z,1.55
2022-11-29T14:58:40.925Z,1.52
2022-11-29T15:02:25.584Z,1.56
2022-11-29T15:05:55.322Z,1.63
2022-11-29T15:09:22.753Z,1.50
2022-11-29T15:12:47.520Z,1.57
2022-11-29T15:16:41.775Z,1.71
2022-11-29T15:20:10.934Z,1.72
2022-11-29T15:23:42.718Z,1.70
2022-11-29T15:27:05.496Z,1.65
2022-11-29T15:34:23.085Z,1.67
2022-11-29T15:38:06.227Z,1.65
2022-11-29T15:41:35.651Z,1.59
2022-11-29T15:45:00.015Z,1.58
2022-11-29T15:48:31.750Z,1.60
2022-11-29T15:52:35.055Z,1.44
2022-11-29T15:56:00.891Z,1.53
2022-11-29T15:59:42.550Z,1.44
2022-11-29T16:03:15.768Z,1.56
2022-11-29T16:06:43.183Z,1.71
2022-11-29T16:10:35.303Z,1.58
2022-11-29T16:14:22.496Z,1.58
2022-11-29T16:17:29.056Z,1.46
2022-11-29T16:21:00.931Z,1.41
2022-11-29T16:24:23.901Z,1.37
2022-11-29T16:27:47.802Z,1.45
2022-11-29T16:31:18.000Z,1.57
2022-11-29T16:39:05.963Z,1.53
2022-11-29T16:43:18.312Z,1.48
2022-11-29T16:46:46.660Z,1.42
2022-11-29T16:51:13.451Z,1.43
2022-11-29T16:54:56.727Z,1.32
2022-11-29T16:58:19.851Z,1.26
2022-11-29T17:01:42.752Z,1.24
2022-11-29T17:04:47.845Z,1.21
2022-11-29T17:08:37.063Z,1.14
2022-11-29T17:12:21.727Z,1.19
2022-11-29T17:15:54.309Z,1.28
2022-11-29T17:23:14.751Z,1.38
2022-11-29T17:26:37.699Z,1.16
2022-11-29T17:30:00.927Z,1.25
2022-11-29T17:33:42.406Z,1.11
2022-11-29T17:37:05.117Z,1.03
2022-11-29T17:40:36.687Z,1.01
2022-11-29T17:43:40.845Z,0.96
2022-11-29T17:47:23.987Z,0.95
2022-11-29T17:50:46.734Z,0.80
2022-11-29T17:54:33.191Z,0.67
2022-11-29T17:58:25.139Z,0.65
2022-11-29T18:02:17.294Z,0.53
2022-11-29T18:05:42.460Z,0.53
2022-11-29T18:09:13.690Z,0.53
2022-11-29T18:12:37.344Z,0.41
2022-11-29T18:16:10.795Z,0.54
2022-11-29T18:19:44.897Z,0.58
2022-11-29T18:23:13.321Z,0.49
2022-11-29T18:26:47.558Z,0.66
2022-11-29T18:30:30.920Z,0.71
2022-11-29T18:33:56.274Z,0.68
2022-11-29T18:37:55.819Z,0.83
2022-11-29T18:41:11.120Z,0.71
2022-11-29T18:45:08.877Z,0.71
2022-11-29T18:49:10.402Z,0.88
2022-11-29T18:53:13.610Z,0.86
2022-11-29T18:56:22.336Z,0.85
2022-11-29T19:06:38.926Z,0.89
2022-11-29T19:09:42.533Z,0.80
2022-11-29T19:12:46.290Z,0.91
2022-11-29T19:15:53.621Z,0.86
2022-11-29T19:18:58.162Z,0.91
2022-11-29T19:22:01.073Z,0.76
2022-11-29T19:25:04.428Z,0.87
2022-11-29T19:28:14.415Z,0.90
2022-11-29T19:31:20.533Z,0.87
2022-11-29T19:34:24.572Z,0.91
2022-11-29T19:37:27.706Z,1.08
2022-11-29T19:40:30.710Z,1.03
2022-11-29T19:43:50.330Z,0.95
2022-11-29T19:46:53.532Z,0.96
2022-11-29T19:50:02.066Z,0.93
2022-11-29T19:53:05.780Z,0.98
2022-11-29T19:56:11.786Z,0.89
2022-11-29T19:59:34.886Z,0.99
2022-11-29T20:09:56.635Z,1.11
2022-11-29T20:13:30.371Z,1.18
2022-11-29T20:16:38.390Z,1.24
2022-11-29T20:23:10.613Z,1.26
2022-11-29T20:26:18.856Z,1.37
2022-11-29T20:29:22.017Z,1.28
2022-11-29T20:32:25.012Z,1.34
2022-11-29T20:35:28.072Z,1.22
2022-11-29T20:38:41.778Z,1.27
2022-11-29T20:41:44.376Z,1.25
2022-11-29T20:44:53.913Z,1.34
2022-11-29T20:48:02.623Z,1.36
2022-11-29T20:51:06.649Z,1.37
2022-11-29T20:54:12.000Z,1.49
2022-11-29T20:57:15.064Z,1.40
2022-11-29T21:00:18.397Z,1.44
2022-11-29T21:03:22.329Z,1.44
2022-11-29T21:06:25.026Z,1.43
2022-11-29T21:09:28.688Z,1.45
2022-11-29T21:12:32.105Z,1.54
2022-11-29T21:15:35.540Z,1.47
2022-11-29T21:18:38.673Z,1.50
2022-11-29T21:22:09.605Z,1.51
2022-11-29T21:25:21.417Z,1.60
2022-11-29T21:28:30.205Z,1.56
2022-11-29T21:31:33.261Z,1.53
2022-11-29T21:34:36.235Z,1.55
2022-11-29T21:37:39.093Z,1.58
2022-11-29T21:40:42.038Z,1.60
2022-11-29T21:44:05.398Z,1.63
2022-11-29T21:47:07.648Z,1.65
2022-11-29T21:50:11.970Z,1.60
2022-11-29T21:53:14.876Z,1.63
2022-11-29T21:56:17.730Z,1.64
2022-11-29T21:59:21.161Z,1.66
2022-11-29T22:02:23.948Z,1.65
2022-11-29T22:05:27.012Z,1.61
2022-11-29T22:08:29.676Z,1.65
2022-11-29T22:11:34.348Z,1.59
2022-11-29T22:14:37.211Z,1.64
2022-11-29T22:17:41.246Z,1.68
2022-11-29T22:20:44.088Z,1.65
2022-11-29T22:23:47.185Z,1.72
2022-11-29T22:26:51.359Z,1.68
2022-11-29T22:29:54.615Z,1.73
2022-11-29T22:32:57.327Z,1.81
2022-11-29T22:36:11.609Z,1.79
2022-11-29T22:39:14.639Z,1.82
2022-11-29T22:42:17.600Z,1.77
2022-11-29T22:45:20.369Z,1.79
2022-11-29T22:48:23.623Z,1.83
2022-11-29T22:51:31.894Z,1.86
2022-11-29T22:54:34.830Z,1.88
2022-11-29T22:57:37.392Z,1.88
2022-11-29T23:00:44.050Z,1.91
2022-11-29T23:03:51.776Z,1.86
2022-11-29T23:06:54.809Z,1.85
2022-11-29T23:09:57.631Z,1.85
2022-11-29T23:13:02.917Z,1.85
2022-11-29T23:16:07.543Z,1.85
2022-11-29T23:19:10.570Z,1.86
2022-11-29T23:22:13.393Z,1.85
2022-11-29T23:25:16.454Z,1.87
2022-11-29T23:28:19.492Z,1.91
2022-11-29T23:31:23.915Z,1.90
2022-11-29T23:34:26.677Z,1.89
2022-11-29T23:37:29.571Z,1.87
2022-11-29T23:40:35.236Z,1.89
2022-11-29T23:43:40.548Z,1.91
2022-11-29T23:46:43.211Z,1.86
2022-11-29T23:49:46.383Z,1.91
2022-11-29T23:52:54.017Z,1.91
2022-11-29T23:55:59.293Z,1.92
2022-11-29T23:59:02.485Z,1.93
